sensor_id;sensor_type;location;lat;lon;timestamp;P1;durP1;ratioP1;P2;durP2;ratioP2
26034;SDS011;13809;48.632;11.576;2023-03-18T00:00:20;5.60;;;4.70;;
26034;SDS011;13809;48.632;11.576;2023-03-18T00:05:25;5.00;;;4.50;;
26034;SDS011;13809;48.632;11.576;2023-03-18T00:10:28;5.07;;;4.50;;
26034;SDS011;13809;48.632;11.576;2023-03-18T00:15:33;6.50;;;4.90;;
26034;SDS011;13809;48.632;11.576;2023-03-18T00:20:37;6.80;;;5.20;;
26034;SDS011;13809;48.632;11.576;2023-03-18T00:25:40;4.67;;;4.27;;
26034;SDS011;13809;48.632;11.576;2023-03-18T00:30:44;4.50;;;3.93;;
26034;SDS011;13809;48.632;11.576;2023-03-18T00:35:49;6.10;;;4.80;;
26034;SDS011;13809;48.632;11.576;2023-03-18T00:40:53;5.93;;;4.93;;
26034;SDS011;13809;48.632;11.576;2023-03-18T00:46:01;5.17;;;4.50;;
26034;SDS011;13809;48.632;11.576;2023-03-18T00:51:07;5.60;;;5.10;;
26034;SDS011;13809;48.632;11.576;2023-03-18T00:56:11;5.53;;;5.03;;
26034;SDS011;13809;48.632;11.576;2023-03-18T01:01:15;5.33;;;4.83;;
26034;SDS011;13809;48.632;11.576;2023-03-18T01:06:21;5.80;;;4.87;;
26034;SDS011;13809;48.632;11.576;2023-03-18T01:11:28;5.00;;;4.33;;
26034;SDS011;13809;48.632;11.576;2023-03-18T01:16:32;5.40;;;4.90;;
26034;SDS011;13809;48.632;11.576;2023-03-18T01:21:36;5.23;;;4.73;;
26034;SDS011;13809;48.632;11.576;2023-03-18T01:26:39;5.00;;;4.60;;
26034;SDS011;13809;48.632;11.576;2023-03-18T01:31:42;5.03;;;4.53;;
26034;SDS011;13809;48.632;11.576;2023-03-18T01:36:47;5.20;;;4.70;;
26034;SDS011;13809;48.632;11.576;2023-03-18T01:41:50;6.00;;;4.43;;
26034;SDS011;13809;48.632;11.576;2023-03-18T01:46:53;5.73;;;4.90;;
26034;SDS011;13809;48.632;11.576;2023-03-18T01:51:59;5.37;;;4.87;;
26034;SDS011;13809;48.632;11.576;2023-03-18T01:57:05;6.00;;;5.23;;
26034;SDS011;13809;48.632;11.576;2023-03-18T02:02:09;4.70;;;4.23;;
26034;SDS011;13809;48.632;11.576;2023-03-18T02:07:16;5.57;;;5.07;;
26034;SDS011;13809;48.632;11.576;2023-03-18T02:12:23;4.90;;;4.33;;
26034;SDS011;13809;48.632;11.576;2023-03-18T02:17:28;4.93;;;4.40;;
26034;SDS011;13809;48.632;11.576;2023-03-18T02:22:35;4.40;;;3.83;;
26034;SDS011;13809;48.632;11.576;2023-03-18T02:27:43;5.13;;;4.50;;
26034;SDS011;13809;48.632;11.576;2023-03-18T02:32:49;5.30;;;4.80;;
26034;SDS011;13809;48.632;11.576;2023-03-18T02:37:54;4.63;;;4.20;;
26034;SDS011;13809;48.632;11.576;2023-03-18T02:43:05;5.20;;;4.73;;
26034;SDS011;13809;48.632;11.576;2023-03-18T02:48:18;5.70;;;4.60;;
26034;SDS011;13809;48.632;11.576;2023-03-18T02:53:24;17.10;;;10.97;;
26034;SDS011;13809;48.632;11.576;2023-03-18T02:58:28;17.93;;;11.07;;
26034;SDS011;13809;48.632;11.576;2023-03-18T03:03:32;8.63;;;7.00;;
26034;SDS011;13809;48.632;11.576;2023-03-18T03:08:36;6.77;;;5.93;;
26034;SDS011;13809;48.632;11.576;2023-03-18T03:13:42;5.47;;;4.97;;
26034;SDS011;13809;48.632;11.576;2023-03-18T03:18:46;5.73;;;4.93;;
26034;SDS011;13809;48.632;11.576;2023-03-18T03:23:49;5.33;;;4.37;;
26034;SDS011;13809;48.632;11.576;2023-03-18T03:28:54;4.57;;;4.00;;
26034;SDS011;13809;48.632;11.576;2023-03-18T03:33:58;4.87;;;4.47;;
26034;SDS011;13809;48.632;11.576;2023-03-18T03:39:01;4.13;;;3.83;;
26034;SDS011;13809;48.632;11.576;2023-03-18T03:44:06;5.13;;;4.63;;
26034;SDS011;13809;48.632;11.576;2023-03-18T03:49:09;4.80;;;4.40;;
26034;SDS011;13809;48.632;11.576;2023-03-18T03:54:12;4.60;;;4.20;;
26034;SDS011;13809;48.632;11.576;2023-03-18T03:59:17;5.63;;;4.80;;
26034;SDS011;13809;48.632;11.576;2023-03-18T04:04:20;3.90;;;3.50;;
26034;SDS011;13809;48.632;11.576;2023-03-18T04:09:24;4.80;;;4.20;;
26034;SDS011;13809;48.632;11.576;2023-03-18T04:14:29;5.67;;;5.13;;
26034;SDS011;13809;48.632;11.576;2023-03-18T04:19:32;5.30;;;4.67;;
26034;SDS011;13809;48.632;11.576;2023-03-18T04:24:35;6.23;;;5.40;;
26034;SDS011;13809;48.632;11.576;2023-03-18T04:29:39;6.13;;;5.53;;
26034;SDS011;13809;48.632;11.576;2023-03-18T04:34:42;5.67;;;5.13;;
26034;SDS011;13809;48.632;11.576;2023-03-18T04:39:46;5.07;;;4.63;;
26034;SDS011;13809;48.632;11.576;2023-03-18T04:44:50;4.67;;;4.27;;
26034;SDS011;13809;48.632;11.576;2023-03-18T04:49:53;4.50;;;4.10;;
26034;SDS011;13809;48.632;11.576;2023-03-18T04:54:56;5.07;;;4.53;;
26034;SDS011;13809;48.632;11.576;2023-03-18T05:00:02;4.30;;;3.90;;
26034;SDS011;13809;48.632;11.576;2023-03-18T05:05:07;5.10;;;4.30;;
26034;SDS011;13809;48.632;11.576;2023-03-18T05:10:12;4.87;;;4.07;;
26034;SDS011;13809;48.632;11.576;2023-03-18T05:15:17;4.30;;;3.90;;
26034;SDS011;13809;48.632;11.576;2023-03-18T05:20:20;3.30;;;3.10;;
26034;SDS011;13809;48.632;11.576;2023-03-18T05:25:23;4.73;;;3.53;;
26034;SDS011;13809;48.632;11.576;2023-03-18T05:30:28;4.50;;;4.10;;
26034;SDS011;13809;48.632;11.576;2023-03-18T05:35:32;4.47;;;3.83;;
26034;SDS011;13809;48.632;11.576;2023-03-18T05:40:35;4.57;;;4.17;;
26034;SDS011;13809;48.632;11.576;2023-03-18T05:45:39;3.93;;;3.53;;
26034;SDS011;13809;48.632;11.576;2023-03-18T05:50:44;5.00;;;4.50;;
26034;SDS011;13809;48.632;11.576;2023-03-18T05:55:48;4.47;;;4.07;;
26034;SDS011;13809;48.632;11.576;2023-03-18T06:00:52;5.03;;;4.63;;
26034;SDS011;13809;48.632;11.576;2023-03-18T06:05:56;6.83;;;5.90;;
26034;SDS011;13809;48.632;11.576;2023-03-18T06:10:59;4.97;;;4.50;;
26034;SDS011;13809;48.632;11.576;2023-03-18T06:16:04;5.00;;;4.60;;
26034;SDS011;13809;48.632;11.576;2023-03-18T06:21:09;5.07;;;4.57;;
26034;SDS011;13809;48.632;11.576;2023-03-18T06:26:12;5.27;;;4.77;;
26034;SDS011;13809;48.632;11.576;2023-03-18T06:31:16;4.40;;;3.97;;
26034;SDS011;13809;48.632;11.576;2023-03-18T06:36:20;4.90;;;4.50;;
26034;SDS011;13809;48.632;11.576;2023-03-18T06:41:24;5.77;;;4.97;;
26034;SDS011;13809;48.632;11.576;2023-03-18T06:46:29;4.90;;;4.40;;
26034;SDS011;13809;48.632;11.576;2023-03-18T06:51:33;4.97;;;4.57;;
26034;SDS011;13809;48.632;11.576;2023-03-18T06:56:37;5.80;;;5.20;;
26034;SDS011;13809;48.632;11.576;2023-03-18T07:01:43;5.17;;;4.60;;
26034;SDS011;13809;48.632;11.576;2023-03-18T07:06:47;5.17;;;4.70;;
26034;SDS011;13809;48.632;11.576;2023-03-18T07:11:50;6.43;;;5.53;;
26034;SDS011;13809;48.632;11.576;2023-03-18T07:16:55;9.17;;;6.03;;
26034;SDS011;13809;48.632;11.576;2023-03-18T07:21:58;7.63;;;5.67;;
26034;SDS011;13809;48.632;11.576;2023-03-18T07:27:02;6.53;;;5.93;;
26034;SDS011;13809;48.632;11.576;2023-03-18T07:32:08;7.57;;;6.50;;
26034;SDS011;13809;48.632;11.576;2023-03-18T07:37:11;8.53;;;6.07;;
26034;SDS011;13809;48.632;11.576;2023-03-18T07:42:15;6.93;;;6.13;;
26034;SDS011;13809;48.632;11.576;2023-03-18T07:47:20;7.03;;;6.30;;
26034;SDS011;13809;48.632;11.576;2023-03-18T07:52:25;6.33;;;5.67;;
26034;SDS011;13809;48.632;11.576;2023-03-18T07:57:28;7.90;;;5.70;;
26034;SDS011;13809;48.632;11.576;2023-03-18T08:02:33;5.67;;;5.17;;
26034;SDS011;13809;48.632;11.576;2023-03-18T08:07:36;7.23;;;5.87;;
26034;SDS011;13809;48.632;11.576;2023-03-18T08:12:39;7.03;;;6.00;;
26034;SDS011;13809;48.632;11.576;2023-03-18T08:17:55;8.17;;;6.67;;
26034;SDS011;13809;48.632;11.576;2023-03-18T08:22:58;8.57;;;6.77;;
26034;SDS011;13809;48.632;11.576;2023-03-18T08:28:01;9.50;;;6.33;;
26034;SDS011;13809;48.632;11.576;2023-03-18T08:33:09;8.00;;;6.90;;
26034;SDS011;13809;48.632;11.576;2023-03-18T08:38:12;7.20;;;6.47;;
26034;SDS011;13809;48.632;11.576;2023-03-18T08:43:16;7.30;;;6.60;;
26034;SDS011;13809;48.632;11.576;2023-03-18T08:48:23;8.13;;;6.83;;
26034;SDS011;13809;48.632;11.576;2023-03-18T08:53:27;7.97;;;7.17;;
26034;SDS011;13809;48.632;11.576;2023-03-18T08:58:30;10.43;;;7.10;;
26034;SDS011;13809;48.632;11.576;2023-03-18T09:03:35;9.50;;;6.87;;
26034;SDS011;13809;48.632;11.576;2023-03-18T09:08:38;7.63;;;6.47;;
26034;SDS011;13809;48.632;11.576;2023-03-18T09:13:42;7.57;;;6.87;;
26034;SDS011;13809;48.632;11.576;2023-03-18T09:18:46;7.33;;;6.60;;
26034;SDS011;13809;48.632;11.576;2023-03-18T09:23:49;6.87;;;6.17;;
26034;SDS011;13809;48.632;11.576;2023-03-18T09:28:53;8.13;;;6.37;;
26034;SDS011;13809;48.632;11.576;2023-03-18T09:33:57;7.33;;;6.53;;
26034;SDS011;13809;48.632;11.576;2023-03-18T09:39:01;12.37;;;6.90;;
26034;SDS011;13809;48.632;11.576;2023-03-18T09:44:07;16.40;;;8.17;;
26034;SDS011;13809;48.632;11.576;2023-03-18T09:55:00;8.33;;;6.73;;
26034;SDS011;13809;48.632;11.576;2023-03-18T10:00:10;6.70;;;6.10;;
26034;SDS011;13809;48.632;11.576;2023-03-18T10:05:22;7.20;;;6.50;;
26034;SDS011;13809;48.632;11.576;2023-03-18T10:10:33;8.50;;;6.03;;
26034;SDS011;13809;48.632;11.576;2023-03-18T10:15:40;10.23;;;6.33;;
26034;SDS011;13809;48.632;11.576;2023-03-18T10:20:56;7.27;;;6.00;;
26034;SDS011;13809;48.632;11.576;2023-03-18T10:26:18;6.20;;;5.70;;
26034;SDS011;13809;48.632;11.576;2023-03-18T10:31:30;6.27;;;5.67;;
26034;SDS011;13809;48.632;11.576;2023-03-18T10:36:45;8.17;;;6.17;;
26034;SDS011;13809;48.632;11.576;2023-03-18T10:41:54;6.10;;;5.50;;
26034;SDS011;13809;48.632;11.576;2023-03-18T10:47:02;7.07;;;5.57;;
26034;SDS011;13809;48.632;11.576;2023-03-18T10:52:16;5.97;;;5.37;;
26034;SDS011;13809;48.632;11.576;2023-03-18T10:57:30;5.77;;;5.27;;
26034;SDS011;13809;48.632;11.576;2023-03-18T11:02:33;5.30;;;4.80;;
26034;SDS011;13809;48.632;11.576;2023-03-18T11:07:53;4.57;;;4.20;;
26034;SDS011;13809;48.632;11.576;2023-03-18T11:13:00;4.13;;;3.73;;
26034;SDS011;13809;48.632;11.576;2023-03-18T11:18:04;4.40;;;3.50;;
26034;SDS011;13809;48.632;11.576;2023-03-18T11:23:13;3.57;;;3.27;;
26034;SDS011;13809;48.632;11.576;2023-03-18T11:28:21;2.83;;;2.63;;
26034;SDS011;13809;48.632;11.576;2023-03-18T11:33:29;4.30;;;2.83;;
26034;SDS011;13809;48.632;11.576;2023-03-18T11:38:37;2.80;;;2.50;;
26034;SDS011;13809;48.632;11.576;2023-03-18T11:43:52;3.00;;;2.40;;
26034;SDS011;13809;48.632;11.576;2023-03-18T11:48:57;2.87;;;2.60;;
26034;SDS011;13809;48.632;11.576;2023-03-18T11:59:38;3.10;;;2.50;;
26034;SDS011;13809;48.632;11.576;2023-03-18T12:05:03;3.20;;;2.27;;
26034;SDS011;13809;48.632;11.576;2023-03-18T12:10:27;2.80;;;2.43;;
26034;SDS011;13809;48.632;11.576;2023-03-18T12:15:39;3.03;;;2.03;;
26034;SDS011;13809;48.632;11.576;2023-03-18T12:20:49;3.03;;;2.20;;
26034;SDS011;13809;48.632;11.576;2023-03-18T12:25:55;3.13;;;2.20;;
26034;SDS011;13809;48.632;11.576;2023-03-18T12:31:08;3.00;;;1.90;;
26034;SDS011;13809;48.632;11.576;2023-03-18T12:36:36;3.63;;;2.37;;
26034;SDS011;13809;48.632;11.576;2023-03-18T12:41:52;2.10;;;1.90;;
26034;SDS011;13809;48.632;11.576;2023-03-18T12:47:05;3.30;;;2.23;;
26034;SDS011;13809;48.632;11.576;2023-03-18T12:52:14;6.47;;;2.23;;
26034;SDS011;13809;48.632;11.576;2023-03-18T12:57:25;2.40;;;2.20;;
26034;SDS011;13809;48.632;11.576;2023-03-18T13:02:40;3.03;;;2.30;;
26034;SDS011;13809;48.632;11.576;2023-03-18T13:07:51;2.50;;;2.20;;
26034;SDS011;13809;48.632;11.576;2023-03-18T13:13:06;2.63;;;2.10;;
26034;SDS011;13809;48.632;11.576;2023-03-18T13:18:14;2.50;;;2.30;;
26034;SDS011;13809;48.632;11.576;2023-03-18T13:23:29;3.50;;;2.47;;
26034;SDS011;13809;48.632;11.576;2023-03-18T13:28:44;2.50;;;2.17;;
26034;SDS011;13809;48.632;11.576;2023-03-18T13:34:12;2.80;;;2.37;;
26034;SDS011;13809;48.632;11.576;2023-03-18T13:39:45;4.23;;;2.40;;
26034;SDS011;13809;48.632;11.576;2023-03-18T13:45:00;2.63;;;2.10;;
26034;SDS011;13809;48.632;11.576;2023-03-18T13:55:32;3.57;;;2.43;;
26034;SDS011;13809;48.632;11.576;2023-03-18T14:00:43;2.60;;;2.40;;
26034;SDS011;13809;48.632;11.576;2023-03-18T14:06:21;3.80;;;2.60;;
26034;SDS011;13809;48.632;11.576;2023-03-18T14:16:50;4.63;;;2.40;;
26034;SDS011;13809;48.632;11.576;2023-03-18T14:22:05;3.17;;;2.47;;
26034;SDS011;13809;48.632;11.576;2023-03-18T14:27:14;2.97;;;2.30;;
26034;SDS011;13809;48.632;11.576;2023-03-18T14:32:34;2.87;;;2.50;;
26034;SDS011;13809;48.632;11.576;2023-03-18T14:37:54;2.83;;;2.20;;
26034;SDS011;13809;48.632;11.576;2023-03-18T14:43:05;2.50;;;2.30;;
26034;SDS011;13809;48.632;11.576;2023-03-18T14:48:13;4.07;;;2.77;;
26034;SDS011;13809;48.632;11.576;2023-03-18T14:53:23;2.30;;;2.10;;
26034;SDS011;13809;48.632;11.576;2023-03-18T14:58:32;2.50;;;2.30;;
26034;SDS011;13809;48.632;11.576;2023-03-18T15:03:36;2.77;;;2.27;;
26034;SDS011;13809;48.632;11.576;2023-03-18T15:08:45;3.50;;;2.40;;
26034;SDS011;13809;48.632;11.576;2023-03-18T15:13:52;2.57;;;2.30;;
26034;SDS011;13809;48.632;11.576;2023-03-18T15:18:58;21.20;;;4.70;;
26034;SDS011;13809;48.632;11.576;2023-03-18T15:24:03;4.47;;;2.53;;
26034;SDS011;13809;48.632;11.576;2023-03-18T15:29:17;16.00;;;4.57;;
26034;SDS011;13809;48.632;11.576;2023-03-18T15:34:26;19.90;;;2.77;;
26034;SDS011;13809;48.632;11.576;2023-03-18T15:39:33;4.43;;;2.30;;
26034;SDS011;13809;48.632;11.576;2023-03-18T15:44:38;2.63;;;1.90;;
26034;SDS011;13809;48.632;11.576;2023-03-18T15:49:48;2.63;;;2.17;;
26034;SDS011;13809;48.632;11.576;2023-03-18T15:54:56;2.67;;;2.00;;
26034;SDS011;13809;48.632;11.576;2023-03-18T15:59:59;4.27;;;2.10;;
26034;SDS011;13809;48.632;11.576;2023-03-18T16:05:06;2.40;;;2.20;;
26034;SDS011;13809;48.632;11.576;2023-03-18T16:10:16;3.53;;;1.90;;
26034;SDS011;13809;48.632;11.576;2023-03-18T16:15:23;1.80;;;1.70;;
26034;SDS011;13809;48.632;11.576;2023-03-18T16:20:28;3.97;;;2.03;;
26034;SDS011;13809;48.632;11.576;2023-03-18T16:25:34;1.90;;;1.60;;
26034;SDS011;13809;48.632;11.576;2023-03-18T16:30:37;2.37;;;1.60;;
26034;SDS011;13809;48.632;11.576;2023-03-18T16:35:41;2.77;;;1.83;;
26034;SDS011;13809;48.632;11.576;2023-03-18T16:40:47;5.27;;;2.40;;
26034;SDS011;13809;48.632;11.576;2023-03-18T16:45:50;2.67;;;2.10;;
26034;SDS011;13809;48.632;11.576;2023-03-18T16:50:54;1.70;;;1.60;;
26034;SDS011;13809;48.632;11.576;2023-03-18T16:56:03;3.53;;;2.13;;
26034;SDS011;13809;48.632;11.576;2023-03-18T17:01:16;3.03;;;1.83;;
26034;SDS011;13809;48.632;11.576;2023-03-18T17:06:20;97.97;;;7.60;;
26034;SDS011;13809;48.632;11.576;2023-03-18T17:11:25;30.87;;;3.80;;
26034;SDS011;13809;48.632;11.576;2023-03-18T17:16:29;4.90;;;2.03;;
26034;SDS011;13809;48.632;11.576;2023-03-18T17:21:32;6.00;;;2.10;;
26034;SDS011;13809;48.632;11.576;2023-03-18T17:26:37;3.53;;;1.90;;
26034;SDS011;13809;48.632;11.576;2023-03-18T17:31:40;3.80;;;1.70;;
26034;SDS011;13809;48.632;11.576;2023-03-18T17:36:43;3.63;;;1.60;;
26034;SDS011;13809;48.632;11.576;2023-03-18T17:41:47;7.67;;;6.13;;
26034;SDS011;13809;48.632;11.576;2023-03-18T17:46:51;11.10;;;7.97;;
26034;SDS011;13809;48.632;11.576;2023-03-18T17:51:54;10.77;;;7.53;;
26034;SDS011;13809;48.632;11.576;2023-03-18T17:56:59;9.87;;;8.87;;
26034;SDS011;13809;48.632;11.576;2023-03-18T18:02:02;12.63;;;9.93;;
26034;SDS011;13809;48.632;11.576;2023-03-18T18:07:07;10.67;;;9.43;;
26034;SDS011;13809;48.632;11.576;2023-03-18T18:12:20;17.97;;;13.23;;
26034;SDS011;13809;48.632;11.576;2023-03-18T18:17:25;13.73;;;10.17;;
26034;SDS011;13809;48.632;11.576;2023-03-18T18:22:28;16.03;;;10.67;;
26034;SDS011;13809;48.632;11.576;2023-03-18T18:27:33;16.50;;;12.40;;
26034;SDS011;13809;48.632;11.576;2023-03-18T18:32:36;15.03;;;10.70;;
26034;SDS011;13809;48.632;11.576;2023-03-18T18:37:40;8.60;;;7.70;;
26034;SDS011;13809;48.632;11.576;2023-03-18T18:42:47;7.90;;;6.33;;
26034;SDS011;13809;48.632;11.576;2023-03-18T18:47:51;9.77;;;6.53;;
26034;SDS011;13809;48.632;11.576;2023-03-18T18:52:54;9.17;;;7.40;;
26034;SDS011;13809;48.632;11.576;2023-03-18T18:57:59;19.37;;;17.27;;
26034;SDS011;13809;48.632;11.576;2023-03-18T19:03:02;17.37;;;14.57;;
26034;SDS011;13809;48.632;11.576;2023-03-18T19:08:12;13.83;;;12.43;;
26034;SDS011;13809;48.632;11.576;2023-03-18T19:13:25;12.20;;;10.90;;
26034;SDS011;13809;48.632;11.576;2023-03-18T19:18:31;11.20;;;9.10;;
26034;SDS011;13809;48.632;11.576;2023-03-18T19:23:37;11.07;;;9.30;;
26034;SDS011;13809;48.632;11.576;2023-03-18T19:28:41;11.17;;;9.73;;
26034;SDS011;13809;48.632;11.576;2023-03-18T19:34:00;9.97;;;8.97;;
26034;SDS011;13809;48.632;11.576;2023-03-18T19:39:04;8.77;;;7.67;;
26034;SDS011;13809;48.632;11.576;2023-03-18T19:44:15;8.03;;;6.87;;
26034;SDS011;13809;48.632;11.576;2023-03-18T19:49:22;5.67;;;5.17;;
26034;SDS011;13809;48.632;11.576;2023-03-18T19:54:27;6.07;;;5.30;;
26034;SDS011;13809;48.632;11.576;2023-03-18T19:59:33;6.13;;;5.60;;
26034;SDS011;13809;48.632;11.576;2023-03-18T20:04:40;7.20;;;6.40;;
26034;SDS011;13809;48.632;11.576;2023-03-18T20:09:43;11.90;;;8.10;;
26034;SDS011;13809;48.632;11.576;2023-03-18T20:14:47;8.87;;;7.97;;
26034;SDS011;13809;48.632;11.576;2023-03-18T20:19:51;10.17;;;8.70;;
26034;SDS011;13809;48.632;11.576;2023-03-18T20:24:54;8.83;;;8.00;;
26034;SDS011;13809;48.632;11.576;2023-03-18T20:29:59;10.30;;;9.20;;
26034;SDS011;13809;48.632;11.576;2023-03-18T20:35:02;9.87;;;8.73;;
26034;SDS011;13809;48.632;11.576;2023-03-18T20:40:06;10.10;;;7.77;;
26034;SDS011;13809;48.632;11.576;2023-03-18T20:45:21;11.17;;;7.80;;
26034;SDS011;13809;48.632;11.576;2023-03-18T20:50:26;9.53;;;8.50;;
26034;SDS011;13809;48.632;11.576;2023-03-18T20:55:31;12.23;;;9.77;;
26034;SDS011;13809;48.632;11.576;2023-03-18T21:00:37;12.97;;;9.97;;
26034;SDS011;13809;48.632;11.576;2023-03-18T21:05:40;11.70;;;9.87;;
26034;SDS011;13809;48.632;11.576;2023-03-18T21:10:44;13.97;;;9.40;;
26034;SDS011;13809;48.632;11.576;2023-03-18T21:15:48;10.60;;;8.93;;
26034;SDS011;13809;48.632;11.576;2023-03-18T21:20:51;10.50;;;7.90;;
26034;SDS011;13809;48.632;11.576;2023-03-18T21:25:55;10.17;;;7.13;;
26034;SDS011;13809;48.632;11.576;2023-03-18T21:31:00;8.93;;;7.67;;
26034;SDS011;13809;48.632;11.576;2023-03-18T21:36:04;9.60;;;6.73;;
26034;SDS011;13809;48.632;11.576;2023-03-18T21:41:13;8.57;;;7.50;;
26034;SDS011;13809;48.632;11.576;2023-03-18T21:46:22;8.53;;;6.43;;
26034;SDS011;13809;48.632;11.576;2023-03-18T21:51:28;8.77;;;6.10;;
26034;SDS011;13809;48.632;11.576;2023-03-18T21:56:39;7.23;;;6.27;;
26034;SDS011;13809;48.632;11.576;2023-03-18T22:01:44;7.53;;;6.20;;
26034;SDS011;13809;48.632;11.576;2023-03-18T22:06:47;7.67;;;6.73;;
26034;SDS011;13809;48.632;11.576;2023-03-18T22:11:50;9.10;;;7.13;;
26034;SDS011;13809;48.632;11.576;2023-03-18T22:16:54;8.90;;;6.13;;
26034;SDS011;13809;48.632;11.576;2023-03-18T22:21:58;7.23;;;6.03;;
26034;SDS011;13809;48.632;11.576;2023-03-18T22:27:01;8.70;;;6.93;;
26034;SDS011;13809;48.632;11.576;2023-03-18T22:32:07;7.80;;;6.63;;
26034;SDS011;13809;48.632;11.576;2023-03-18T22:37:17;8.57;;;7.37;;
26034;SDS011;13809;48.632;11.576;2023-03-18T22:42:22;9.30;;;6.90;;
26034;SDS011;13809;48.632;11.576;2023-03-18T22:47:28;6.93;;;6.23;;
26034;SDS011;13809;48.632;11.576;2023-03-18T22:52:31;9.13;;;7.20;;
26034;SDS011;13809;48.632;11.576;2023-03-18T22:57:34;12.23;;;8.00;;
26034;SDS011;13809;48.632;11.576;2023-03-18T23:02:39;9.93;;;8.00;;
26034;SDS011;13809;48.632;11.576;2023-03-18T23:07:42;9.87;;;7.83;;
26034;SDS011;13809;48.632;11.576;2023-03-18T23:12:46;7.80;;;6.87;;
26034;SDS011;13809;48.632;11.576;2023-03-18T23:17:50;8.60;;;7.53;;
26034;SDS011;13809;48.632;11.576;2023-03-18T23:22:53;6.50;;;5.83;;
26034;SDS011;13809;48.632;11.576;2023-03-18T23:27:57;7.70;;;6.57;;
26034;SDS011;13809;48.632;11.576;2023-03-18T23:33:01;7.73;;;6.50;;
26034;SDS011;13809;48.632;11.576;2023-03-18T23:38:05;5.97;;;5.37;;
26034;SDS011;13809;48.632;11.576;2023-03-18T23:43:08;7.17;;;6.33;;
26034;SDS011;13809;48.632;11.576;2023-03-18T23:48:12;9.30;;;7.50;;
26034;SDS011;13809;48.632;11.576;2023-03-18T23:53:15;7.73;;;6.67;;
26034;SDS011;13809;48.632;11.576;2023-03-18T23:58:19;7.97;;;6.87;;
